Time;durP1;ratioP1;P1;durP2;ratioP2;P2;SDS_P1;SDS_P2;PMS_P1;PMS_P2;Temp;Humidity;BMP_temperature;BMP_pressure;BME280_temperature;BME280_humidity;BME280_pressure;Samples;Min_cycle;Max_cycle;Signal;HPM_P1;HPM_P2
2023/05/20 00:00:45;;;;;;;2.45;2.13;;;15.30;58.10;;;;;;4987533;28;20069;-75
2023/05/20 00:03:10;;;;;;;2.95;2.17;;;15.40;58.30;;;;;;4958573;28;20030;-74
2023/05/20 00:05:36;;;;;;;6.35;2.42;;;15.30;58.40;;;;;;4962800;28;20034;-75
2023/05/20 00:08:06;;;;;;;4.90;2.10;;;15.20;58.50;;;;;;4960813;28;20034;-74
2023/05/20 00:10:31;;;;;;;3.45;2.08;;;15.20;58.60;;;;;;4940747;28;21697;-75
2023/05/20 00:12:57;;;;;;;4.13;2.33;;;15.20;58.70;;;;;;4963944;28;20041;-75
2023/05/20 00:15:22;;;;;;;4.57;2.42;;;15.20;58.80;;;;;;4968889;28;20057;-75
2023/05/20 00:17:48;;;;;;;2.78;2.03;;;15.20;58.80;;;;;;4950948;28;20053;-75
2023/05/20 00:20:13;;;;;;;6.22;2.42;;;15.20;59.00;;;;;;4950954;28;20034;-75
2023/05/20 00:22:39;;;;;;;3.10;2.00;;;15.10;59.00;;;;;;4948195;28;20167;-75
2023/05/20 00:25:05;;;;;;;3.05;2.20;;;15.10;59.10;;;;;;4992156;28;21014;-75
2023/05/20 00:27:30;;;;;;;3.20;1.85;;;15.10;59.20;;;;;;4961784;28;20151;-75
2023/05/20 00:29:56;;;;;;;4.50;1.75;;;15.10;59.30;;;;;;4983230;28;20289;-75
2023/05/20 00:32:21;;;;;;;1.90;1.70;;;15.00;59.20;;;;;;4971522;28;20437;-74
2023/05/20 00:34:57;;;;;;;4.85;1.90;;;15.00;59.30;;;;;;4966977;28;20662;-75
2023/05/20 00:37:23;;;;;;;2.17;1.52;;;15.00;59.60;;;;;;4940531;28;20042;-75
2023/05/20 00:39:48;;;;;;;4.05;1.95;;;15.00;59.40;;;;;;4978107;28;20072;-75
2023/05/20 00:42:27;;;;;;;3.08;1.88;;;14.90;59.70;;;;;;4992946;28;20038;-74
2023/05/20 00:44:53;;;;;;;2.58;1.88;;;14.90;60.00;;;;;;4972716;28;20045;-75
2023/05/20 00:47:19;;;;;;;2.88;2.03;;;14.80;59.80;;;;;;4962679;28;20108;-74
2023/05/20 00:49:45;;;;;;;1.92;1.70;;;14.80;60.00;;;;;;4978987;28;20038;-75
2023/05/20 00:52:11;;;;;;;1.98;1.77;;;14.80;60.10;;;;;;4984366;28;20047;-75
2023/05/20 00:54:37;;;;;;;3.92;2.20;;;14.80;61.10;;;;;;4975125;28;20788;-75
2023/05/20 00:57:03;;;;;;;2.97;2.25;;;14.80;60.40;;;;;;4985072;28;20045;-75
2023/05/20 00:59:28;;;;;;;2.33;2.10;;;14.70;60.40;;;;;;4979798;28;20041;-75
2023/05/20 01:01:55;;;;;;;2.90;2.25;;;14.70;60.60;;;;;;4984241;28;20424;-75
2023/05/20 01:04:21;;;;;;;5.53;2.35;;;14.70;60.80;;;;;;4957914;28;20076;-76
2023/05/20 01:06:46;;;;;;;3.33;2.05;;;14.70;61.10;;;;;;4987161;28;20880;-75
2023/05/20 01:09:12;;;;;;;2.67;2.10;;;14.60;61.20;;;;;;4948993;28;20111;-75
2023/05/20 01:11:41;;;;;;;5.25;2.40;;;14.60;61.20;;;;;;4990160;28;20044;-75
2023/05/20 01:14:07;;;;;;;3.55;2.00;;;14.60;61.40;;;;;;4961347;28;20076;-75
2023/05/20 01:16:32;;;;;;;3.72;2.10;;;14.60;61.40;;;;;;4941821;28;22369;-74
2023/05/20 01:18:58;;;;;;;2.85;2.10;;;14.60;61.40;;;;;;4959526;28;20656;-75
2023/05/20 01:21:24;;;;;;;2.83;1.95;;;14.50;61.40;;;;;;4966231;28;20034;-75
2023/05/20 01:23:50;;;;;;;2.97;2.05;;;14.60;61.60;;;;;;4968966;28;20107;-74
2023/05/20 01:26:17;;;;;;;3.67;2.08;;;14.60;61.70;;;;;;4960557;28;20037;-74
2023/05/20 01:28:43;;;;;;;2.45;1.95;;;14.50;61.60;;;;;;4984573;28;20112;-75
2023/05/20 01:31:20;;;;;;;2.17;1.98;;;14.50;61.70;;;;;;4973422;28;20037;-75
2023/05/20 01:33:45;;;;;;;3.85;2.08;;;14.50;62.40;;;;;;4990283;28;20046;-75
2023/05/20 01:36:11;;;;;;;2.35;1.75;;;14.50;62.10;;;;;;4977162;28;20040;-75
2023/05/20 01:38:36;;;;;;;2.58;2.13;;;14.50;62.20;;;;;;4978171;28;20038;-74
2023/05/20 01:41:03;;;;;;;2.47;1.98;;;14.40;62.20;;;;;;4990925;28;20125;-75
2023/05/20 01:43:29;;;;;;;3.38;2.10;;;14.50;62.60;;;;;;4986451;28;20029;-75
2023/05/20 01:45:54;;;;;;;3.13;2.08;;;14.50;62.50;;;;;;4974465;28;20586;-74
2023/05/20 01:48:20;;;;;;;2.55;1.80;;;14.40;62.40;;;;;;4948771;28;20503;-75
2023/05/20 01:50:45;;;;;;;2.88;2.03;;;14.50;62.40;;;;;;4977225;28;20773;-75
2023/05/20 01:53:12;;;;;;;2.47;2.05;;;14.40;62.40;;;;;;4983456;28;20480;-75
2023/05/20 01:55:37;;;;;;;2.40;2.20;;;14.50;62.60;;;;;;4976203;28;20034;-75
2023/05/20 01:58:03;;;;;;;4.80;2.03;;;14.40;62.70;;;;;;4981101;28;20037;-75
2023/05/20 02:00:29;;;;;;;2.47;2.22;;;14.40;62.60;;;;;;4991605;28;20178;-75
2023/05/20 02:02:55;;;;;;;4.00;2.28;;;14.50;62.80;;;;;;4978749;28;20041;-75
2023/05/20 02:05:20;;;;;;;3.13;2.22;;;14.50;62.80;;;;;;5004682;28;20037;-75
2023/05/20 02:07:46;;;;;;;6.47;2.42;;;14.50;62.90;;;;;;5007625;28;20072;-75
2023/05/20 02:10:11;;;;;;;2.60;2.00;;;14.40;63.00;;;;;;4982821;28;20404;-75
2023/05/20 02:12:37;;;;;;;3.03;2.15;;;14.40;63.00;;;;;;4983719;28;21514;-75
2023/05/20 02:15:03;;;;;;;2.63;2.15;;;14.40;62.90;;;;;;5003752;28;20678;-75
2023/05/20 02:17:28;;;;;;;4.43;2.17;;;14.40;63.00;;;;;;4956655;28;20036;-74
2023/05/20 02:19:54;;;;;;;6.55;2.50;;;14.40;63.80;;;;;;4972258;28;20128;-75
2023/05/20 02:22:19;;;;;;;2.95;2.35;;;14.40;63.10;;;;;;5003309;28;20034;-75
2023/05/20 02:24:45;;;;;;;3.55;2.10;;;14.40;63.10;;;;;;5004858;28;20074;-75
2023/05/20 02:27:11;;;;;;;2.95;2.20;;;14.40;63.20;;;;;;5002515;28;20500;-75
2023/05/20 02:29:37;;;;;;;3.38;2.10;;;14.40;63.20;;;;;;4987685;28;20041;-75
2023/05/20 02:32:03;;;;;;;4.28;2.20;;;14.40;63.30;;;;;;5002894;28;20704;-75
2023/05/20 02:34:29;;;;;;;3.42;2.70;;;14.40;63.70;;;;;;4984309;28;20047;-75
2023/05/20 02:36:55;;;;;;;6.53;2.40;;;14.40;63.70;;;;;;4957436;28;20455;-75
2023/05/20 02:39:21;;;;;;;2.50;2.20;;;14.40;63.80;;;;;;4984969;28;20037;-75
2023/05/20 02:41:46;;;;;;;4.30;2.60;;;14.30;63.70;;;;;;4997470;28;20037;-75
2023/05/20 02:44:12;;;;;;;3.22;2.70;;;14.30;63.70;;;;;;4997933;28;20038;-74
2023/05/20 02:46:37;;;;;;;3.03;2.67;;;14.30;63.90;;;;;;5013451;28;20128;-75
2023/05/20 02:49:03;;;;;;;3.88;2.38;;;14.30;64.00;;;;;;5013598;28;20026;-74
2023/05/20 02:51:30;;;;;;;5.03;2.50;;;14.30;64.00;;;;;;5004722;28;20508;-75
2023/05/20 02:53:56;;;;;;;3.63;2.00;;;14.30;64.20;;;;;;4982181;28;20052;-75
2023/05/20 02:56:21;;;;;;;4.70;2.47;;;14.30;64.20;;;;;;4999994;28;20033;-75
2023/05/20 02:58:47;;;;;;;3.20;2.40;;;14.30;64.20;;;;;;5004215;28;20406;-75
2023/05/20 03:01:13;;;;;;;5.07;2.83;;;14.30;64.40;;;;;;5007054;28;20537;-75
2023/05/20 03:03:39;;;;;;;2.60;2.40;;;14.30;64.40;;;;;;4976708;28;21062;-74
2023/05/20 03:06:05;;;;;;;4.47;2.70;;;14.30;64.40;;;;;;5011382;28;20037;-75
2023/05/20 03:08:32;;;;;;;3.38;2.58;;;14.30;64.50;;;;;;5009377;28;20040;-75
2023/05/20 03:10:58;;;;;;;3.50;2.85;;;14.30;64.60;;;;;;5005210;28;20425;-75
2023/05/20 03:13:23;;;;;;;4.05;2.70;;;14.30;64.70;;;;;;5015464;28;20042;-75
2023/05/20 03:15:49;;;;;;;2.53;2.33;;;14.30;64.70;;;;;;5008271;28;20033;-74
2023/05/20 03:18:14;;;;;;;3.70;2.42;;;14.30;64.80;;;;;;5030203;28;20058;-75
2023/05/20 03:20:41;;;;;;;3.80;2.38;;;14.30;65.60;;;;;;4992126;28;20124;-75
2023/05/20 03:23:06;;;;;;;3.70;2.50;;;14.30;64.70;;;;;;4962232;28;20049;-75
2023/05/20 03:25:32;;;;;;;3.33;2.47;;;14.30;64.70;;;;;;4983068;28;20122;-75
2023/05/20 03:27:58;;;;;;;3.63;2.35;;;14.30;65.70;;;;;;4998911;28;20084;-74
2023/05/20 03:30:24;;;;;;;3.58;2.67;;;14.30;65.00;;;;;;4992402;28;20129;-75
2023/05/20 03:32:50;;;;;;;3.38;2.55;;;14.30;65.00;;;;;;4971957;28;20434;-75
2023/05/20 03:35:15;;;;;;;4.30;2.40;;;14.30;65.10;;;;;;5018085;28;20025;-74
2023/05/20 03:37:41;;;;;;;3.47;2.70;;;14.20;65.10;;;;;;4990284;28;20049;-75
2023/05/20 03:40:09;;;;;;;3.60;2.92;;;14.20;65.30;;;;;;4962552;28;20033;-75
2023/05/20 03:42:35;;;;;;;5.10;2.70;;;14.20;65.20;;;;;;4986959;28;20042;-74
2023/05/20 03:45:00;;;;;;;4.18;2.67;;;14.20;65.30;;;;;;4999916;28;20654;-75
2023/05/20 03:47:26;;;;;;;4.15;3.05;;;14.20;65.30;;;;;;4999590;28;20041;-75
2023/05/20 03:49:52;;;;;;;4.57;3.33;;;14.20;65.30;;;;;;5001332;28;20034;-74
2023/05/20 03:52:18;;;;;;;5.43;3.88;;;14.20;65.50;;;;;;4995409;28;20041;-74
2023/05/20 03:54:43;;;;;;;3.42;3.13;;;14.30;65.60;;;;;;5013517;28;20041;-75
2023/05/20 03:57:12;;;;;;;3.72;3.00;;;14.20;65.70;;;;;;5013496;28;20806;-75
2023/05/20 03:59:37;;;;;;;3.85;2.80;;;14.20;65.80;;;;;;4965090;28;20126;-75
2023/05/20 04:02:03;;;;;;;4.55;3.42;;;14.30;65.90;;;;;;4964680;28;20704;-75
2023/05/20 04:04:30;;;;;;;4.55;3.50;;;14.30;65.90;;;;;;4953772;28;20037;-75
2023/05/20 04:06:55;;;;;;;6.45;3.40;;;14.30;66.10;;;;;;4963615;28;20049;-75
2023/05/20 04:09:21;;;;;;;3.83;3.30;;;14.30;66.00;;;;;;4968194;28;20034;-75
2023/05/20 04:11:47;;;;;;;4.65;3.75;;;14.30;66.30;;;;;;4959573;28;20125;-75
2023/05/20 04:14:13;;;;;;;4.43;2.95;;;14.30;66.30;;;;;;4962093;28;20056;-74
2023/05/20 04:16:38;;;;;;;4.35;3.15;;;14.30;66.30;;;;;;4962866;28;20044;-75
2023/05/20 04:19:04;;;;;;;3.58;3.20;;;14.30;66.30;;;;;;4994711;28;20040;-75
2023/05/20 04:21:30;;;;;;;8.23;3.50;;;14.30;66.40;;;;;;4981447;28;20035;-75
2023/05/20 04:23:56;;;;;;;6.05;3.63;;;14.30;66.40;;;;;;4955748;28;20073;-75
2023/05/20 04:26:21;;;;;;;8.95;3.63;;;14.30;66.50;;;;;;4945912;28;20038;-75
2023/05/20 04:28:49;;;;;;;4.03;3.40;;;14.30;66.70;;;;;;4929801;28;20041;-75
2023/05/20 04:31:15;;;;;;;7.53;3.50;;;14.30;66.60;;;;;;4976736;28;20088;-75
2023/05/20 04:33:41;;;;;;;6.18;4.03;;;14.30;66.60;;;;;;4966031;28;20405;-75
2023/05/20 04:36:09;;;;;;;5.88;3.80;;;14.30;66.80;;;;;;4944776;28;20760;-75
2023/05/20 04:38:34;;;;;;;5.15;4.15;;;14.30;66.80;;;;;;4954077;28;20062;-74
2023/05/20 04:41:00;;;;;;;5.30;3.38;;;14.40;66.80;;;;;;4959161;28;20789;-75
2023/05/20 04:43:28;;;;;;;4.95;3.67;;;14.40;67.00;;;;;;4939631;28;20034;-76
2023/05/20 04:45:54;;;;;;;5.55;3.75;;;14.40;66.90;;;;;;4933102;28;23465;-75
2023/05/20 04:48:21;;;;;;;4.57;3.80;;;14.40;66.90;;;;;;4974156;28;20037;-75
2023/05/20 04:50:48;;;;;;;6.28;4.15;;;14.40;67.10;;;;;;4959961;28;20492;-75
2023/05/20 04:53:17;;;;;;;4.80;3.72;;;14.40;67.10;;;;;;4960162;28;20034;-75
2023/05/20 04:55:43;;;;;;;5.00;3.85;;;14.40;67.10;;;;;;4960993;28;20045;-75
2023/05/20 04:58:14;;;;;;;5.47;3.90;;;14.40;67.00;;;;;;4961817;28;20048;-75
2023/05/20 05:00:43;;;;;;;4.72;3.65;;;14.40;67.10;;;;;;4991625;28;20087;-75
2023/05/20 05:03:08;;;;;;;8.13;4.20;;;14.50;67.20;;;;;;5002587;28;20091;-75
2023/05/20 05:05:40;;;;;;;5.40;3.88;;;14.50;67.20;;;;;;4994267;28;20067;-75
2023/05/20 05:08:06;;;;;;;5.82;4.00;;;14.50;67.10;;;;;;4997391;28;20456;-75
2023/05/20 05:10:32;;;;;;;5.05;4.00;;;14.50;67.10;;;;;;4966546;28;20118;-74
2023/05/20 05:12:57;;;;;;;5.18;3.85;;;14.50;67.20;;;;;;4979383;28;20042;-75
2023/05/20 05:15:23;;;;;;;4.85;3.83;;;14.50;67.20;;;;;;4997724;28;20037;-75
2023/05/20 05:17:49;;;;;;;6.78;4.20;;;14.60;67.20;;;;;;4960745;28;20120;-75
2023/05/20 05:20:15;;;;;;;5.90;4.22;;;14.60;67.30;;;;;;4994299;28;20152;-76
2023/05/20 05:22:40;;;;;;;7.75;3.88;;;14.60;67.20;;;;;;4914705;28;20041;-76
2023/05/20 05:25:07;;;;;;;4.57;3.92;;;14.60;67.10;;;;;;4994239;28;20815;-75
2023/05/20 05:27:32;;;;;;;5.95;4.38;;;14.70;67.20;;;;;;4988347;28;20041;-75
2023/05/20 05:29:58;;;;;;;7.60;4.28;;;14.70;67.10;;;;;;4973869;28;20064;-75
2023/05/20 05:32:24;;;;;;;5.55;4.60;;;14.70;67.10;;;;;;4984439;28;20041;-75
2023/05/20 05:34:49;;;;;;;5.88;4.05;;;14.70;67.00;;;;;;5009792;28;20083;-75
2023/05/20 05:37:15;;;;;;;9.05;4.30;;;14.80;67.10;;;;;;5017319;28;20150;-74
2023/05/20 05:39:40;;;;;;;5.72;4.53;;;14.80;67.00;;;;;;4987851;28;20131;-76
2023/05/20 05:42:06;;;;;;;5.22;4.60;;;14.80;67.00;;;;;;4989417;28;20496;-75
2023/05/20 05:44:31;;;;;;;4.75;4.30;;;14.90;67.00;;;;;;5027389;28;20072;-75
2023/05/20 05:46:57;;;;;;;8.00;4.50;;;14.90;66.90;;;;;;4966286;28;20045;-75
2023/05/20 05:49:22;;;;;;;5.22;4.60;;;14.90;66.90;;;;;;5004947;28;20491;-75
2023/05/20 05:51:49;;;;;;;6.10;4.22;;;14.90;66.90;;;;;;4995835;28;20464;-75
2023/05/20 05:54:15;;;;;;;6.13;4.45;;;15.00;66.90;;;;;;4993593;28;20037;-75
2023/05/20 05:56:40;;;;;;;5.90;4.85;;;15.00;66.80;;;;;;4989392;28;20065;-75
2023/05/20 05:59:06;;;;;;;6.32;4.78;;;15.10;66.80;;;;;;4993646;28;20597;-75
2023/05/20 06:01:32;;;;;;;5.40;4.60;;;15.10;66.90;;;;;;5011792;28;20538;-75
2023/05/20 06:03:57;;;;;;;6.28;5.15;;;15.20;66.90;;;;;;4994870;28;20033;-75
2023/05/20 06:06:23;;;;;;;5.88;4.72;;;15.20;66.80;;;;;;4988826;28;20064;-76
2023/05/20 06:08:48;;;;;;;6.75;5.05;;;15.20;66.70;;;;;;4988861;28;20120;-75
2023/05/20 06:11:14;;;;;;;6.90;4.65;;;15.30;67.50;;;;;;4973633;28;20152;-75
2023/05/20 06:13:39;;;;;;;5.60;4.60;;;15.30;66.60;;;;;;5008680;28;20041;-75
2023/05/20 06:16:05;;;;;;;7.40;4.80;;;15.40;66.60;;;;;;5011968;28;20033;-75
2023/05/20 06:18:30;;;;;;;5.43;4.40;;;15.40;66.60;;;;;;5011910;28;20165;-75
2023/05/20 06:20:56;;;;;;;7.10;4.75;;;15.40;66.60;;;;;;4978807;28;20033;-75
2023/05/20 06:23:22;;;;;;;8.25;5.07;;;15.50;66.60;;;;;;5012913;28;20042;-75
2023/05/20 06:25:48;;;;;;;6.95;4.82;;;15.50;66.50;;;;;;4996280;28;20045;-76
2023/05/20 06:28:14;;;;;;;5.25;4.72;;;15.50;66.50;;;;;;4995894;28;20049;-76
2023/05/20 06:30:40;;;;;;;5.43;4.60;;;15.50;66.50;;;;;;5006004;28;20057;-75
2023/05/20 06:33:05;;;;;;;5.60;4.95;;;15.60;66.50;;;;;;5001308;28;20188;-75
2023/05/20 06:35:33;;;;;;;7.10;5.43;;;15.60;66.40;;;;;;4981331;28;20045;-75
2023/05/20 06:38:00;;;;;;;7.72;5.40;;;15.60;66.30;;;;;;4992126;28;20125;-74
2023/05/20 06:40:26;;;;;;;6.15;5.13;;;15.60;66.30;;;;;;4997397;28;20042;-74
2023/05/20 06:42:51;;;;;;;8.38;5.70;;;15.70;66.30;;;;;;4982780;28;20452;-74
2023/05/20 06:45:17;;;;;;;7.82;4.90;;;15.70;66.20;;;;;;4971427;28;20537;-74
2023/05/20 06:47:43;;;;;;;6.57;5.22;;;15.80;66.20;;;;;;4960713;28;20636;-74
2023/05/20 06:50:09;;;;;;;8.05;5.68;;;15.80;66.10;;;;;;5008347;28;20094;-74
2023/05/20 06:52:35;;;;;;;7.32;5.70;;;15.80;66.10;;;;;;4982909;28;20072;-74
2023/05/20 06:55:00;;;;;;;6.45;5.18;;;15.90;66.20;;;;;;5010670;28;20420;-74
2023/05/20 06:57:26;;;;;;;8.88;5.80;;;16.00;66.20;;;;;;5019096;28;20159;-74
2023/05/20 06:59:51;;;;;;;9.25;6.10;;;16.10;66.20;;;;;;4964859;28;20046;-75
2023/05/20 07:02:17;;;;;;;8.02;5.50;;;16.30;66.10;;;;;;4993519;28;20038;-74
2023/05/20 07:04:42;;;;;;;9.82;5.63;;;16.50;66.00;;;;;;4974190;28;20049;-74
2023/05/20 07:10:30;;;;;;;6.40;5.47;;;16.90;65.60;;;;;;4994526;28;20705;-75
2023/05/20 07:12:55;;;;;;;7.03;5.35;;;17.10;65.00;;;;;;4999130;28;20030;-74
2023/05/20 07:15:21;;;;;;;10.65;5.47;;;17.20;64.70;;;;;;4967206;28;20086;-74
2023/05/20 07:17:46;;;;;;;6.82;5.63;;;17.30;64.40;;;;;;4939623;28;20113;-76
2023/05/20 07:20:12;;;;;;;8.75;6.28;;;17.40;64.20;;;;;;4990247;28;20223;-75
2023/05/20 07:22:37;;;;;;;9.10;5.18;;;17.50;63.90;;;;;;4975182;28;20034;-74
2023/05/20 07:25:03;;;;;;;8.90;5.95;;;17.50;63.70;;;;;;4962704;28;20503;-75
2023/05/20 07:27:29;;;;;;;6.18;5.57;;;17.60;63.70;;;;;;4940852;28;20050;-75
2023/05/20 07:29:55;;;;;;;6.53;5.57;;;17.60;63.50;;;;;;4981649;28;20068;-75
2023/05/20 07:32:20;;;;;;;7.72;6.03;;;17.80;63.50;;;;;;4965341;28;20534;-75
2023/05/20 07:34:46;;;;;;;9.88;5.88;;;17.90;63.30;;;;;;4995589;28;20065;-75
2023/05/20 07:37:12;;;;;;;7.35;5.63;;;18.10;64.00;;;;;;4978245;28;20140;-75
2023/05/20 07:39:37;;;;;;;11.07;5.50;;;18.20;62.80;;;;;;4963339;28;20029;-75
2023/05/20 07:42:03;;;;;;;6.50;5.22;;;18.40;62.60;;;;;;4989057;28;20103;-75
2023/05/20 07:44:28;;;;;;;8.52;5.43;;;18.60;62.40;;;;;;4985231;28;20045;-75
2023/05/20 07:46:54;;;;;;;8.43;6.00;;;18.70;62.00;;;;;;4975770;28;20899;-75
2023/05/20 07:49:20;;;;;;;9.32;6.00;;;18.90;61.70;;;;;;4977896;28;20046;-75
2023/05/20 07:51:45;;;;;;;9.70;5.70;;;19.00;61.40;;;;;;4967343;28;20112;-76
2023/05/20 07:54:11;;;;;;;8.10;5.63;;;19.20;61.10;;;;;;4977670;28;20601;-76
2023/05/20 07:56:37;;;;;;;6.93;5.78;;;19.20;60.80;;;;;;4965258;28;20029;-75
2023/05/20 07:59:02;;;;;;;7.63;5.63;;;19.30;60.60;;;;;;4997435;28;20080;-75
2023/05/20 08:01:28;;;;;;;13.05;6.20;;;19.30;60.40;;;;;;4971124;28;20713;-76
2023/05/20 08:03:53;;;;;;;8.80;6.10;;;19.30;60.40;;;;;;4994155;28;20045;-76
2023/05/20 08:06:19;;;;;;;7.82;5.80;;;19.40;60.20;;;;;;4958299;28;20068;-75
2023/05/20 08:08:45;;;;;;;9.32;5.80;;;19.50;60.10;;;;;;4976083;28;20447;-76
2023/05/20 08:11:10;;;;;;;7.35;5.78;;;19.70;59.90;;;;;;4984174;28;20030;-75
2023/05/20 08:13:36;;;;;;;7.60;5.60;;;19.80;60.40;;;;;;4982522;28;20568;-74
2023/05/20 08:16:04;;;;;;;11.75;5.90;;;19.90;59.50;;;;;;4959125;28;20045;-75
2023/05/20 08:18:31;;;;;;;9.05;5.45;;;20.10;59.30;;;;;;4973214;28;20078;-75
2023/05/20 08:20:57;;;;;;;7.32;6.10;;;20.20;59.10;;;;;;4978980;28;20120;-76
2023/05/20 08:23:23;;;;;;;7.15;5.28;;;20.30;58.80;;;;;;4941208;28;20091;-76
2023/05/20 08:25:49;;;;;;;7.72;5.78;;;20.50;58.70;;;;;;4987442;28;20034;-75
2023/05/20 08:28:15;;;;;;;7.18;5.60;;;20.70;58.60;;;;;;4977632;28;20567;-76
2023/05/20 08:30:40;;;;;;;8.43;5.20;;;20.90;58.30;;;;;;4992464;28;20034;-75
2023/05/20 08:33:06;;;;;;;7.40;5.65;;;21.10;58.20;;;;;;4989386;28;20156;-76
2023/05/20 08:35:31;;;;;;;6.70;5.95;;;21.20;57.70;;;;;;4980775;28;20069;-76
2023/05/20 08:37:57;;;;;;;9.80;6.25;;;21.40;57.40;;;;;;4996384;28;20495;-76
2023/05/20 08:40:23;;;;;;;7.88;5.35;;;21.50;57.00;;;;;;4979766;28;20108;-75
2023/05/20 08:42:51;;;;;;;6.85;5.65;;;21.60;56.90;;;;;;4997544;28;20062;-76
2023/05/20 08:45:19;;;;;;;6.80;5.30;;;21.70;56.70;;;;;;4983097;28;20120;-75
2023/05/20 08:47:45;;;;;;;9.45;5.90;;;21.80;56.30;;;;;;4979329;28;20534;-75
2023/05/20 08:50:11;;;;;;;9.07;5.72;;;21.90;56.00;;;;;;4977104;28;20037;-75
2023/05/20 08:52:40;;;;;;;6.43;5.70;;;22.00;55.90;;;;;;4990674;28;20030;-76
2023/05/20 08:55:06;;;;;;;7.85;6.07;;;22.20;55.80;;;;;;4950752;28;20039;-76
2023/05/20 08:57:32;;;;;;;7.70;5.78;;;22.30;55.40;;;;;;4968909;28;20201;-76
2023/05/20 08:59:58;;;;;;;8.40;5.57;;;22.40;55.10;;;;;;4992880;28;20644;-75
2023/05/20 09:02:24;;;;;;;6.03;5.20;;;22.40;54.90;;;;;;4942029;28;20050;-76
2023/05/20 09:04:50;;;;;;;8.02;5.50;;;22.50;54.70;;;;;;4996044;28;20042;-75
2023/05/20 09:07:26;;;;;;;11.15;5.63;;;22.60;54.70;;;;;;4971636;28;20045;-76
2023/05/20 09:09:52;;;;;;;7.88;6.15;;;22.70;54.30;;;;;;4952472;28;20056;-75
2023/05/20 09:12:20;;;;;;;6.50;5.07;;;22.80;54.40;;;;;;4966343;28;20037;-75
2023/05/20 09:14:45;;;;;;;6.03;5.43;;;22.80;54.10;;;;;;4985265;28;20088;-75
2023/05/20 09:17:11;;;;;;;7.40;5.25;;;23.00;53.90;;;;;;4970464;28;20144;-76
2023/05/20 09:19:37;;;;;;;8.98;6.00;;;23.20;53.70;;;;;;4979919;28;20071;-76
2023/05/20 09:22:03;;;;;;;7.88;6.10;;;23.30;53.40;;;;;;4967794;28;20542;-75
2023/05/20 09:24:29;;;;;;;7.18;5.43;;;23.50;53.10;;;;;;4976126;28;20033;-76
2023/05/20 09:26:55;;;;;;;5.78;4.97;;;23.60;52.90;;;;;;4960717;28;20042;-76
2023/05/20 09:29:20;;;;;;;6.82;5.70;;;23.70;52.90;;;;;;4985784;28;20037;-76
2023/05/20 09:31:46;;;;;;;5.90;5.18;;;23.90;52.20;;;;;;4996191;28;20076;-75
2023/05/20 09:34:12;;;;;;;6.63;5.90;;;23.90;51.90;;;;;;4975379;28;20049;-74
2023/05/20 09:36:38;;;;;;;6.93;5.82;;;24.00;51.80;;;;;;4970769;28;20029;-74
2023/05/20 09:39:04;;;;;;;6.53;4.60;;;24.10;51.50;;;;;;4985905;28;20168;-74
2023/05/20 09:41:37;;;;;;;5.72;4.95;;;24.10;51.30;;;;;;4951794;28;20080;-74
2023/05/20 09:44:03;;;;;;;6.05;4.93;;;24.20;51.00;;;;;;4974892;28;20064;-73
2023/05/20 09:46:29;;;;;;;6.72;5.30;;;24.30;50.90;;;;;;4966829;28;20070;-73
2023/05/20 09:48:54;;;;;;;7.10;5.38;;;24.50;50.80;;;;;;4969681;28;20041;-74
2023/05/20 09:51:21;;;;;;;6.43;5.78;;;24.60;50.60;;;;;;4985966;28;20120;-74
2023/05/20 09:53:47;;;;;;;5.50;5.00;;;24.70;50.30;;;;;;4975665;28;20045;-74
2023/05/20 09:56:12;;;;;;;6.35;5.60;;;24.90;50.20;;;;;;4987089;28;20033;-73
2023/05/20 09:58:38;;;;;;;5.85;5.10;;;25.10;50.20;;;;;;4978968;28;20536;-75
2023/05/20 10:01:05;;;;;;;6.75;5.43;;;25.20;50.00;;;;;;4977614;28;20033;-74
2023/05/20 10:03:32;;;;;;;5.72;4.78;;;25.40;49.70;;;;;;4993925;28;20049;-74
2023/05/20 10:06:08;;;;;;;6.10;5.43;;;25.50;49.40;;;;;;4966792;28;20048;-74
2023/05/20 10:09:01;;;;;;;7.57;6.18;;;25.70;49.10;;;;;;4997575;28;20563;-74
2023/05/20 10:11:42;;;;;;;5.32;4.82;;;25.90;48.40;;;;;;4993802;28;20487;-74
2023/05/20 10:14:13;;;;;;;;;;;25.90;48.30;;;;;;4994443;28;20142;-74
2023/05/20 10:17:08;;;;;;;8.40;5.53;;;26.00;48.20;;;;;;5000220;28;19921;-74
2023/05/20 10:19:34;;;;;;;6.55;5.45;;;26.20;48.00;;;;;;4999652;28;20056;-74
2023/05/20 10:22:09;;;;;;;8.05;5.80;;;26.30;48.20;;;;;;4985115;28;20028;-74
2023/05/20 10:24:36;;;;;;;6.95;5.90;;;26.20;47.90;;;;;;4968283;28;20061;-73
2023/05/20 10:27:03;;;;;;;7.55;5.40;;;26.30;47.90;;;;;;5010229;28;20045;-74
2023/05/20 10:29:29;;;;;;;6.35;5.22;;;26.20;47.60;;;;;;4989762;28;20847;-74
2023/05/20 10:31:55;;;;;;;6.10;5.00;;;26.30;47.40;;;;;;4944440;28;20045;-74
2023/05/20 10:34:21;;;;;;;5.63;4.97;;;26.50;47.30;;;;;;4991830;28;20045;-74
2023/05/20 10:36:52;;;;;;;8.38;5.20;;;26.50;47.10;;;;;;4959177;28;20087;-74
2023/05/20 10:39:18;;;;;;;;;;;26.60;46.90;;;;;;5000047;28;20071;-74
2023/05/20 10:41:43;;;;;;;6.07;4.90;;;26.50;47.00;;;;;;4983990;28;20020;-74
2023/05/20 10:44:09;;;;;;;5.68;5.05;;;26.60;47.10;;;;;;4967338;28;20085;-74
2023/05/20 10:46:34;;;;;;;8.27;5.60;;;26.50;46.90;;;;;;5003889;28;20599;-74
2023/05/20 10:49:03;;;;;;;6.60;5.68;;;26.50;46.70;;;;;;4988167;28;20705;-74
2023/05/20 10:51:30;;;;;;;7.15;5.88;;;26.50;46.40;;;;;;5009933;28;20092;-74
2023/05/20 10:53:56;;;;;;;7.10;5.38;;;26.50;46.50;;;;;;4978826;28;20466;-74
2023/05/20 10:56:23;;;;;;;7.30;5.60;;;26.50;46.30;;;;;;4980395;28;20672;-74
2023/05/20 10:58:49;;;;;;;7.13;5.18;;;26.50;46.30;;;;;;4970206;28;20031;-74
2023/05/20 11:01:15;;;;;;;8.18;5.00;;;26.50;46.20;;;;;;5011670;28;20037;-74
2023/05/20 11:03:40;;;;;;;7.60;5.47;;;26.60;46.00;;;;;;4997049;28;20499;-74
2023/05/20 11:06:18;;;;;;;9.38;5.43;;;26.70;45.80;;;;;;4974655;28;20056;-74
2023/05/20 11:08:44;;;;;;;10.23;6.18;;;26.90;45.20;;;;;;4963923;28;20579;-74
2023/05/20 11:11:13;;;;;;;8.82;5.45;;;27.00;45.40;;;;;;4972812;28;20757;-74
2023/05/20 11:13:39;;;;;;;8.40;5.40;;;27.10;45.20;;;;;;4957760;28;20047;-74
2023/05/20 11:16:05;;;;;;;7.32;5.60;;;27.20;45.00;;;;;;4999507;28;20033;-74
2023/05/20 11:18:30;;;;;;;6.43;4.80;;;27.40;44.90;;;;;;5003911;28;20065;-75
2023/05/20 11:20:59;;;;;;;8.20;5.22;;;27.40;44.70;;;;;;5012974;28;20037;-74
2023/05/20 11:23:26;;;;;;;6.38;5.60;;;27.50;44.70;;;;;;4993544;28;20040;-74
2023/05/20 11:25:52;;;;;;;7.32;5.50;;;27.60;44.60;;;;;;4996648;28;20037;-74
2023/05/20 11:28:22;;;;;;;5.70;5.18;;;27.70;44.40;;;;;;5000807;28;20036;-74
2023/05/20 11:30:48;;;;;;;7.03;6.13;;;27.70;44.20;;;;;;5033345;28;20452;-74
2023/05/20 11:33:14;;;;;;;7.35;5.47;;;27.70;44.30;;;;;;4962940;28;20033;-74
2023/05/20 11:35:50;;;;;;;8.38;6.22;;;27.70;44.10;;;;;;5012587;28;20450;-74
2023/05/20 11:38:16;;;;;;;6.30;5.68;;;27.70;43.70;;;;;;5014493;28;20879;-74
2023/05/20 11:40:44;;;;;;;6.90;5.18;;;27.60;43.80;;;;;;5014729;28;20047;-74
2023/05/20 11:43:10;;;;;;;5.80;5.20;;;27.60;43.80;;;;;;5012562;28;20095;-75
2023/05/20 11:45:43;;;;;;;6.55;5.90;;;27.50;43.90;;;;;;4998150;28;20041;-74
2023/05/20 11:48:09;;;;;;;6.80;5.97;;;27.40;43.70;;;;;;4993400;28;20053;-74
2023/05/20 11:50:39;;;;;;;6.60;5.95;;;27.30;43.90;;;;;;5010966;28;20041;-74
2023/05/20 11:53:10;;;;;;;6.95;5.63;;;27.30;43.80;;;;;;4962311;28;20075;-74
2023/05/20 11:55:47;;;;;;;7.22;6.03;;;27.20;43.80;;;;;;5022513;28;21952;-74
2023/05/20 11:58:20;;;;;;;7.45;6.03;;;27.10;43.80;;;;;;5014829;28;20049;-74
2023/05/20 12:00:46;;;;;;;6.28;5.68;;;27.10;43.80;;;;;;4996583;28;20041;-74
2023/05/20 12:03:11;;;;;;;8.68;6.30;;;27.00;43.90;;;;;;5003688;28;20114;-74
2023/05/20 12:05:38;;;;;;;6.38;5.63;;;27.00;43.90;;;;;;5001841;28;20555;-74
2023/05/20 12:08:04;;;;;;;6.55;5.75;;;27.00;44.00;;;;;;5005211;28;20743;-74
2023/05/20 12:10:30;;;;;;;9.15;6.00;;;26.80;43.90;;;;;;5012045;28;20903;-74
2023/05/20 12:12:55;;;;;;;8.18;6.40;;;26.80;43.90;;;;;;5005122;28;20096;-74
2023/05/20 12:15:21;;;;;;;7.28;5.75;;;26.80;43.90;;;;;;4984536;28;20411;-74
2023/05/20 12:17:48;;;;;;;6.47;5.85;;;26.70;44.00;;;;;;4997788;28;20034;-74
2023/05/20 12:20:15;;;;;;;7.80;6.22;;;26.70;44.00;;;;;;4985475;28;20042;-75
2023/05/20 12:22:41;;;;;;;5.93;5.28;;;26.60;44.10;;;;;;4994286;28;20120;-74
2023/05/20 12:25:08;;;;;;;6.75;6.05;;;26.60;44.20;;;;;;4978113;28;20038;-75
2023/05/20 12:27:33;;;;;;;8.05;6.20;;;26.60;44.20;;;;;;4976379;28;20038;-74
2023/05/20 12:29:59;;;;;;;6.85;5.90;;;26.60;44.20;;;;;;4962035;28;20035;-74
2023/05/20 12:32:25;;;;;;;11.25;6.38;;;26.60;44.20;;;;;;4971985;28;20512;-74
2023/05/20 12:34:50;;;;;;;7.50;6.70;;;26.60;44.20;;;;;;4989871;28;20046;-73
2023/05/20 12:37:16;;;;;;;7.53;6.30;;;26.60;44.20;;;;;;4998036;28;20034;-73
2023/05/20 12:39:41;;;;;;;7.05;6.35;;;26.70;44.20;;;;;;4966069;28;20041;-75
2023/05/20 12:42:07;;;;;;;6.90;6.00;;;26.60;44.20;;;;;;4996858;28;20042;-75
2023/05/20 12:44:32;;;;;;;7.90;6.28;;;26.50;44.30;;;;;;5009083;28;20037;-74
2023/05/20 12:46:58;;;;;;;6.80;5.88;;;26.50;44.20;;;;;;4994412;28;20063;-74